• Join FlightAware (Why Join?)
  • Login
  • US Flag 
04:18PM EDT


 

Airport Tracker/Info


-or-


 

Live Flight TrackerFlight Track Log ✈ AAL2360 ✈ 04-Jun-2013 ✈ KDFW - KORD

Flight Track Log - Related Links

Times and Time Zones

All times are in EDT time to prevent confusion due to time zone crossing. See the AAL2360 flight status page for this flight to view local times or setup timezone preferences in your user account.

Time Position Orientation Groundspeed Altitude Reporting Facility
EDT Latitude Longitude Course Direction KTS MPH feet Rate Location/Type
03:36PM 32.8833 -97.0333 357° North 163 188 1,400  Level Dallas / Fort Worth TRACON
03:37PM 32.8167 -97.0167 168° South 228 262 4,000 2,280 Climbing Dallas / Fort Worth TRACON
03:38PM 32.7607 -96.8467 77° East  Level FlightAware Approximate
03:38PM 32.7667 -96.9667 140° Southeast 268 308 6,900  Level Dallas / Fort Worth TRACON
03:39PM 32.8618 -96.8000 North  Level FlightAware Approximate
03:39PM 32.7667 -96.8667 90° East 317 365 8,400  Level Dallas / Fort Worth TRACON
03:40PM 32.9840 -96.8000 North  Level FlightAware Approximate
03:40PM 32.8333 -96.8000 40° Northeast 302 348 10,200  Level Dallas / Fort Worth TRACON
03:41PM 33.1062 -96.8028 357° North  Level FlightAware Approximate
03:42PM 32.9864 -96.8117 356° North 337 388 13,800  Level Fort Worth Center
03:43PM 33.0950 -96.8133 359° North 358 412 17,000 2,700 Climbing Fort Worth Center
03:44PM 33.1889 -96.8153 359° North 358 412 19,200 2,220 Climbing Fort Worth Center
03:45PM 33.3039 -96.8219 357° North 364 419 21,500 1,980 Climbing Fort Worth Center
03:46PM 33.3997 -96.8236 359° North 370 426 23,200 1,500 Climbing Fort Worth Center
03:47PM 33.5186 -96.7831 16° North 391 450 24,600 1,500 Climbing Fort Worth Center
03:48PM 33.6206 -96.7175 28° Northeast 408 470 26,300 1,620 Climbing Fort Worth Center
03:49PM 33.7264 -96.6492 28° Northeast 415 478 27,900 1,320 Climbing Fort Worth Center
03:50PM 33.8303 -96.5683 33° Northeast 428 493 29,000 1,140 Climbing Fort Worth Center
03:51PM 33.9342 -96.4897 32° Northeast 440 506 30,200 1,020 Climbing Fort Worth Center
03:52PM 34.0419 -96.4058 33° Northeast 451 519 31,100 960 Climbing Fort Worth Center
03:53PM 34.1458 -96.3269 32° Northeast 451 519 32,200 900 Climbing Fort Worth Center
03:54PM 34.2575 -96.2400 33° Northeast 451 519 32,900 660 Climbing Fort Worth Center
03:55PM 34.3714 -96.1531 32° Northeast 463 533 33,600 780 Climbing Fort Worth Center
03:56PM 34.4833 -96.0656 33° Northeast 475 547 34,500 660 Climbing Fort Worth Center
03:57PM 34.5931 -95.9808 32° Northeast 475 547 35,000 240 Climbing Fort Worth Center
03:58PM 34.7067 -95.8903 33° Northeast 475 547 35,000  Level Fort Worth Center
03:59PM 34.8203 -95.8025 32° Northeast 480 552 35,100  Climbing Fort Worth Center
04:00PM 34.9336 -95.7039 35° Northeast 480 552 35,100 -60 Level Fort Worth Center
04:01PM 35.0408 -95.6031 38° Northeast 480 552 35,000 -60 Descending Fort Worth Center
04:02PM 35.1478 -95.5017 38° Northeast 485 558 35,000  Level Fort Worth Center
04:04PM 35.3111 -95.3439 38° Northeast 485 558 35,000  Level Kansas City Center
04:04PM 35.3556 -95.3061 35° Northeast 495 570 35,000 60 Level Memphis Center
04:05PM 35.4639 -95.2028 38° Northeast 495 570 35,100  Climbing Memphis Center
04:06PM 35.5700 -95.0992 38° Northeast 489 563 35,100 -60 Level Memphis Center
04:07PM 35.6519 -95.0183 39° Northeast 483 556 35,000 -120 Descending Kansas City Center
04:08PM 35.7569 -94.9178 38° Northeast 481 554 34,900 -60 Descending Kansas City Center
04:09PM 35.8614 -94.8156 38° Northeast 482 555 34,900  Level Kansas City Center
04:10PM 35.9675 -94.7142 38° Northeast 483 556 35,000 60 Climbing Kansas City Center
04:11PM 36.0947 -94.5894 38° Northeast 486 559 35,100  Climbing Kansas City Center
04:12PM 36.2011 -94.4856 38° Northeast 487 560 35,000  Descending Kansas City Center
04:13PM 36.3072 -94.3825 38° Northeast 489 563 35,100  Climbing Kansas City Center
04:14PM 36.4139 -94.2786 38° Northeast 488 562 35,000 -120 Descending Kansas City Center
04:15PM 36.5183 -94.1739 39° Northeast 485 558 34,900  Descending Kansas City Center
04:16PM 36.6244 -94.0700 38° Northeast 485 558 35,000 60 Climbing Kansas City Center
04:17PM 36.7508 -93.9436 39° Northeast 485 558 35,100  Climbing Kansas City Center
04:18PM 36.8564 -93.8392 38° Northeast 486 559 35,000  Descending Kansas City Center
04:19PM 36.9539 -93.7392 39° Northeast 487 560 35,100  Climbing Kansas City Center
04:20PM 37.0583 -93.6322 39° Northeast 485 558 35,100  Level Kansas City Center
04:21PM 37.1844 -93.5053 39° Northeast 484 557 35,100 -120 Level Kansas City Center
04:22PM 37.2892 -93.4039 38° Northeast 476 548 34,900 -900 Descending Kansas City Center
04:24PM 37.3911 -93.3022 38° Northeast 469 540 33,300 -960 Descending Kansas City Center
04:25PM 37.4944 -93.2047 37° Northeast 464 534 33,000 -480 Descending Kansas City Center
04:26PM 37.5983 -93.1089 36° Northeast 462 532 32,300 -840 Descending Kansas City Center
04:27PM 37.7011 -93.0142 36° Northeast 457 526 31,300 -660 Descending Kansas City Center
04:28PM 37.8022 -92.9189 37° Northeast 452 520 31,000 -180 Descending Kansas City Center
04:29PM 37.9264 -92.8031 36° Northeast 457 526 31,000  Level Kansas City Center
04:30PM 38.0225 -92.7125 37° Northeast 457 526 31,000  Level Kansas City Center
04:31PM 38.1244 -92.6169 36° Northeast 457 526 31,000  Level Kansas City Center
04:32PM 38.2392 -92.5114 36° Northeast 460 529 31,000  Level Kansas City Center
04:33PM 38.3428 -92.4114 37° Northeast 462 532 31,000  Level Kansas City Center
04:34PM 38.4464 -92.3117 37° Northeast 462 532 31,000  Level Kansas City Center
04:35PM 38.5519 -92.2128 36° Northeast 466 536 31,000  Level Kansas City Center
04:36PM 38.6553 -92.1108 38° Northeast 466 536 31,000  Level Kansas City Center
04:37PM 38.7603 -92.0106 37° Northeast 467 537 31,100  Climbing Kansas City Center
04:38PM 38.8858 -91.8883 37° Northeast 470 541 31,100  Level Kansas City Center
04:39PM 38.9906 -91.7867 37° Northeast 470 541 31,100 -60 Level Kansas City Center
04:40PM 39.0936 -91.6878 37° Northeast 464 534 31,000 -60 Descending Kansas City Center
04:41PM 39.2028 -91.5822 37° Northeast 464 534 31,000 -240 Level Kansas City Center
04:42PM 39.3047 -91.4803 38° Northeast 462 532 30,600 -720 Descending Kansas City Center
04:43PM 39.4089 -91.3778 37° Northeast 466 536 29,600 -780 Descending Kansas City Center
04:44PM 39.5108 -91.2772 37° Northeast 464 534 29,100 -300 Descending Kansas City Center
04:45PM 39.6086 -91.1797 38° Northeast 453 521 29,000 -60 Descending Kansas City Center
04:46PM 39.7078 -91.0814 37° Northeast 449 517 29,000  Level Kansas City Center
04:47PM 39.8289 -90.9592 38° Northeast 454 522 29,000  Level Kansas City Center
04:48PM 39.9364 -90.8517 37° Northeast 465 535 29,000  Level Kansas City Center
04:49PM 40.0394 -90.7472 38° Northeast 467 537 29,000  Level Kansas City Center
04:50PM 40.1408 -90.6428 38° Northeast 465 535 29,000 -60 Level Kansas City Center
04:51PM 40.2450 -90.5392 37° Northeast 468 539 28,900  Descending Kansas City Center
04:52PM 40.3492 -90.4319 38° Northeast 472 543 29,000 -120 Climbing Kansas City Center
04:54PM 40.4542 -90.3233 38° Northeast 477 549 28,700 -720 Descending Chicago Center
04:55PM 40.5703 -90.2044 38° Northeast 471 542 27,600 -1,020 Descending Chicago Center
04:56PM 40.6733 -90.0983 38° Northeast 472 543 26,600 -1,140 Descending Chicago Center
04:57PM 40.7744 -89.9944 38° Northeast 465 535 25,300 -1,260 Descending Chicago Center
04:58PM 40.8922 -89.8711 38° Northeast 451 519 24,000 -1,080 Descending Chicago Center
04:59PM 40.9883 -89.7700 38° Northeast 445 512 23,100 -540 Descending Chicago Center
05:00PM 41.0803 -89.6717 39° Northeast 439 505 23,000 -60 Descending Chicago Center
05:01PM 41.1694 -89.5606 43° Northeast 451 519 23,000 -840 Level Chicago Center
05:02PM 41.2314 -89.4136 61° Northeast 462 532 21,300 -2,280 Descending Chicago Center
05:03PM 41.3000 -89.2397 62° Northeast 447 514 18,300 -2,640 Descending Chicago Center
05:04PM 41.3528 -89.1022 63° Northeast 426 490 15,900 -2,280 Descending Chicago Center
05:05PM 41.4083 -88.9672 61° Northeast 420 483 13,700 -2,040 Descending Chicago Center
05:06PM 41.4589 -88.8356 63° Northeast 400 460 11,800 -1,260 Descending Chicago Center
05:07PM 41.5086 -88.7142 61° Northeast 376 433 11,100 -360 Descending Chicago Center
05:08PM 41.5656 -88.5700 62° Northeast 366 421 11,100 -240 Level Chicago Center
05:09PM 41.6061 -88.4661 62° Northeast 319 367 10,700 -900 Descending Chicago Center
05:10PM 41.6439 -88.3606 64° Northeast 315 362 9,300 -1,380 Descending Chicago Center
05:11PM 41.6836 -88.2633 61° Northeast 297 342 7,900 -1,440 Descending Chicago Center
05:12PM 41.7222 -88.1711 61° Northeast 284 327 6,400 -1,320 Descending Chicago Center
05:13PM 41.7789 -88.1050 41° Northeast 271 312 5,200 -1,200 Descending Chicago Center